createdAt,value
2019-05-18T00:01:57.757Z,13.53
2019-05-18T00:04:27.403Z,13.49
2019-05-18T00:06:57.214Z,13.48
2019-05-18T00:09:27.003Z,13.44
2019-05-18T00:11:56.729Z,13.39
2019-05-18T00:14:26.366Z,13.38
2019-05-18T00:16:56.122Z,13.37
2019-05-18T00:19:25.736Z,13.33
2019-05-18T00:21:55.484Z,13.30
2019-05-18T00:24:26.972Z,13.28
2019-05-18T00:26:56.580Z,13.28
2019-05-18T00:29:26.246Z,13.25
2019-05-18T00:31:55.833Z,13.23
2019-05-18T00:34:25.450Z,13.22
2019-05-18T00:36:55.065Z,13.18
2019-05-18T00:39:24.711Z,13.15
2019-05-18T00:41:54.303Z,13.15
2019-05-18T00:44:23.943Z,13.15
2019-05-18T00:46:53.551Z,13.20
2019-05-18T00:49:23.154Z,13.19
2019-05-18T00:51:52.764Z,13.15
2019-05-18T00:54:22.445Z,13.14
2019-05-18T00:56:52.087Z,13.14
2019-05-18T00:59:21.721Z,13.11
2019-05-18T01:01:51.305Z,13.07
2019-05-18T01:04:20.881Z,13.08
2019-05-18T01:06:50.475Z,13.07
2019-05-18T01:09:20.081Z,13.08
2019-05-18T01:11:49.672Z,13.08
2019-05-18T01:14:19.278Z,13.03
2019-05-18T01:16:48.862Z,13.05
2019-05-18T01:19:18.449Z,13.05
2019-05-18T01:21:48.034Z,13.09
2019-05-18T01:24:17.830Z,13.10
2019-05-18T01:26:47.666Z,13.11
2019-05-18T01:29:19.921Z,13.08
2019-05-18T01:31:49.595Z,13.12
2019-05-18T01:34:19.213Z,13.09
2019-05-18T01:36:48.823Z,13.05
2019-05-18T01:39:18.469Z,13.00
2019-05-18T01:41:48.079Z,13.02
2019-05-18T01:44:17.673Z,13.03
2019-05-18T01:46:47.293Z,13.02
2019-05-18T01:49:16.876Z,13.03
2019-05-18T01:51:46.472Z,13.05
2019-05-18T01:54:16.079Z,13.07
2019-05-18T01:56:45.799Z,13.09
2019-05-18T01:59:15.435Z,13.10
2019-05-18T02:01:45.091Z,13.14
2019-05-18T02:04:14.788Z,13.14
2019-05-18T02:06:44.422Z,13.08
2019-05-18T02:09:14.095Z,13.07
2019-05-18T02:11:43.781Z,13.02
2019-05-18T02:14:13.408Z,12.99
2019-05-18T02:16:43.045Z,13.01
2019-05-18T02:19:12.671Z,12.99
2019-05-18T02:21:42.288Z,13.01
2019-05-18T02:24:11.928Z,13.01
2019-05-18T02:26:41.507Z,12.99
2019-05-18T02:29:11.125Z,13.00
2019-05-18T02:31:40.751Z,12.95
2019-05-18T02:34:10.418Z,12.91
2019-05-18T02:36:40.120Z,12.86
2019-05-18T02:39:10.554Z,12.82
2019-05-18T02:41:40.165Z,12.83
2019-05-18T02:44:10.108Z,12.86
2019-05-18T02:46:39.715Z,12.86
2019-05-18T02:49:09.347Z,12.81
2019-05-18T02:51:39.099Z,12.80
2019-05-18T02:54:08.855Z,12.81
2019-05-18T02:56:38.513Z,12.82
2019-05-18T02:59:08.120Z,12.83
2019-05-18T03:01:37.750Z,12.81
2019-05-18T03:04:08.945Z,12.76
2019-05-18T03:06:38.591Z,12.75
2019-05-18T03:09:08.444Z,12.72
2019-05-18T03:11:38.108Z,12.67
2019-05-18T03:14:07.792Z,12.67
2019-05-18T03:16:37.460Z,12.66
2019-05-18T03:19:08.955Z,12.65
2019-05-18T03:21:38.511Z,12.65
2019-05-18T03:24:08.144Z,12.69
2019-05-18T03:26:37.733Z,12.68
2019-05-18T03:29:07.406Z,12.73
2019-05-18T03:31:37.064Z,12.76
2019-05-18T03:34:06.664Z,12.79
2019-05-18T03:36:36.399Z,12.83
2019-05-18T03:39:07.291Z,12.89
2019-05-18T03:41:36.985Z,12.97
2019-05-18T03:44:06.589Z,12.99
2019-05-18T03:46:36.230Z,13.01
2019-05-18T03:49:05.858Z,13.02
2019-05-18T03:51:35.516Z,13.07
2019-05-18T03:54:05.215Z,13.10
2019-05-18T03:56:34.849Z,13.16
2019-05-18T03:59:04.621Z,13.18
2019-05-18T04:01:34.233Z,13.15
2019-05-18T04:04:03.841Z,13.19
2019-05-18T04:06:33.424Z,13.29
2019-05-18T04:09:03.704Z,13.39
2019-05-18T04:11:33.353Z,13.41
2019-05-18T04:14:07.663Z,13.47
2019-05-18T04:16:34.367Z,13.56
2019-05-18T04:19:05.260Z,13.67
2019-05-18T04:21:34.871Z,13.74
2019-05-18T04:24:04.446Z,13.79
2019-05-18T04:26:34.068Z,13.86
2019-05-18T04:29:03.765Z,13.94
2019-05-18T04:31:33.353Z,14.05
2019-05-18T04:34:03.002Z,14.17
2019-05-18T04:36:36.140Z,14.29
2019-05-18T04:39:07.515Z,14.42
2019-05-18T04:41:37.151Z,14.53
2019-05-18T04:44:06.997Z,14.61
2019-05-18T04:46:37.088Z,14.71
2019-05-18T04:49:06.879Z,14.82
2019-05-18T04:51:36.648Z,14.91
2019-05-18T04:54:06.301Z,15.02
2019-05-18T04:56:35.922Z,15.14
2019-05-18T04:59:05.712Z,15.23
2019-05-18T05:01:35.284Z,15.32
2019-05-18T05:04:04.938Z,15.45
2019-05-18T05:06:34.597Z,15.53
2019-05-18T05:09:05.852Z,15.56
2019-05-18T05:11:35.467Z,15.62
2019-05-18T05:14:13.943Z,15.67
2019-05-18T05:16:43.513Z,15.79
2019-05-18T05:19:13.141Z,15.96
2019-05-18T05:21:46.476Z,16.08
2019-05-18T05:24:16.347Z,16.16
2019-05-18T05:26:46.110Z,16.19
2019-05-18T05:29:15.742Z,16.31
2019-05-18T05:31:45.358Z,16.45
2019-05-18T05:34:14.980Z,16.57
2019-05-18T05:36:44.687Z,16.67
2019-05-18T05:39:14.298Z,16.76
2019-05-18T05:41:43.901Z,16.82
2019-05-18T05:44:13.679Z,16.90
2019-05-18T05:46:43.292Z,17.03
2019-05-18T05:49:22.628Z,17.12
2019-05-18T05:51:52.237Z,17.25
2019-05-18T05:54:26.172Z,17.30
2019-05-18T05:56:55.793Z,17.41
2019-05-18T05:59:25.426Z,17.45
2019-05-18T06:01:55.053Z,17.52
2019-05-18T06:04:24.793Z,17.62
2019-05-18T06:06:54.482Z,17.67
2019-05-18T06:09:24.119Z,17.71
2019-05-18T06:11:53.804Z,17.70
2019-05-18T06:14:23.873Z,17.66
2019-05-18T06:16:59.722Z,17.71
2019-05-18T06:19:30.005Z,17.81
2019-05-18T06:22:07.001Z,17.94
2019-05-18T06:24:36.626Z,18.04
2019-05-18T06:27:06.287Z,18.16
2019-05-18T06:29:35.943Z,18.34
2019-05-18T06:32:05.603Z,18.48
2019-05-18T06:34:35.402Z,18.63
2019-05-18T06:37:05.050Z,18.73
2019-05-18T06:39:36.306Z,18.80
2019-05-18T06:42:05.908Z,18.91
2019-05-18T06:44:37.377Z,19.00
2019-05-18T06:47:07.039Z,19.10
2019-05-18T06:49:36.657Z,19.18
2019-05-18T06:52:09.681Z,19.30
2019-05-18T06:54:43.115Z,19.48
2019-05-18T06:57:17.416Z,19.62
2019-05-18T06:59:47.214Z,19.84
2019-05-18T07:02:16.791Z,20.01
2019-05-18T07:04:46.514Z,20.15
2019-05-18T07:07:16.135Z,20.22
2019-05-18T07:09:45.764Z,20.33
2019-05-18T07:12:15.387Z,20.46
2019-05-18T07:14:45.021Z,20.57
2019-05-18T07:17:14.813Z,20.73
2019-05-18T07:19:44.487Z,20.89
2019-05-18T07:22:14.362Z,21.10
2019-05-18T07:24:44.024Z,21.36
2019-05-18T07:27:13.679Z,21.58
2019-05-18T07:29:43.273Z,21.85
2019-05-18T07:32:13.000Z,22.01
2019-05-18T07:34:42.826Z,22.25
2019-05-18T07:37:12.446Z,22.45
2019-05-18T07:39:42.039Z,22.57
2019-05-18T07:42:11.666Z,22.77
2019-05-18T07:44:41.291Z,22.62
2019-05-18T07:47:12.396Z,22.32
2019-05-18T07:49:45.213Z,22.54
2019-05-18T07:52:17.250Z,22.57
2019-05-18T07:54:46.346Z,22.76
2019-05-18T07:57:15.962Z,22.85
2019-05-18T07:59:45.598Z,23.22
2019-05-18T08:02:15.316Z,23.64
2019-05-18T08:04:44.925Z,23.78
2019-05-18T08:07:14.547Z,23.92
2019-05-18T08:09:44.133Z,23.87
2019-05-18T08:12:13.778Z,23.78
2019-05-18T08:23:30.881Z,25.11
2019-05-18T08:26:00.463Z,26.41
2019-05-18T08:28:30.101Z,27.43
2019-05-18T08:30:59.721Z,27.71
2019-05-18T08:33:29.326Z,27.82
2019-05-18T08:35:58.924Z,27.78
2019-05-18T08:38:28.636Z,28.10
2019-05-18T08:40:58.251Z,28.40
2019-05-18T08:43:28.484Z,28.05
2019-05-18T08:45:58.278Z,27.94
2019-05-18T08:48:28.670Z,28.27
2019-05-18T08:50:58.312Z,27.97
2019-05-18T08:53:27.927Z,29.09
2019-05-18T08:55:57.635Z,30.46
2019-05-18T08:58:27.256Z,31.27
2019-05-18T09:00:56.865Z,31.91
2019-05-18T09:03:29.445Z,31.30
2019-05-18T09:05:59.209Z,32.19
2019-05-18T09:08:28.913Z,33.11
2019-05-18T09:11:01.023Z,33.89
2019-05-18T09:13:30.630Z,35.33
2019-05-18T09:16:00.694Z,36.22
2019-05-18T09:18:31.589Z,34.78
2019-05-18T09:21:02.862Z,33.22
2019-05-18T09:23:34.299Z,33.64
2019-05-18T09:26:07.012Z,34.22
2019-05-18T09:28:38.272Z,34.33
2019-05-18T09:31:08.025Z,34.99
2019-05-18T09:33:37.722Z,35.83
2019-05-18T09:36:07.401Z,36.49
2019-05-18T09:38:37.139Z,37.68
2019-05-18T09:41:06.866Z,36.36
2019-05-18T09:43:38.198Z,34.02
2019-05-18T09:46:08.037Z,33.36
2019-05-18T09:48:37.796Z,35.63
2019-05-18T09:51:07.535Z,37.50
2019-05-18T09:53:49.461Z,38.46
2019-05-18T09:56:08.599Z,37.43
2019-05-18T09:58:38.372Z,35.99
2019-05-18T10:01:08.016Z,33.88
2019-05-18T10:03:38.012Z,32.56
2019-05-18T10:06:07.840Z,33.20
2019-05-18T10:08:37.454Z,35.81
2019-05-18T10:11:07.136Z,38.34
2019-05-18T10:13:36.688Z,40.73
2019-05-18T10:16:06.320Z,41.57
2019-05-18T10:18:35.905Z,42.79
2019-05-18T10:21:05.865Z,43.95
2019-05-18T10:23:35.481Z,44.02
2019-05-18T10:26:05.145Z,42.83
2019-05-18T10:28:34.810Z,43.67
2019-05-18T10:31:05.106Z,44.36
2019-05-18T10:33:34.867Z,45.20
2019-05-18T10:36:04.502Z,45.98
2019-05-18T10:38:34.116Z,47.12
2019-05-18T10:41:03.766Z,46.62
2019-05-18T10:43:33.377Z,47.40
2019-05-18T10:46:03.096Z,48.33
2019-05-18T10:48:32.717Z,49.20
2019-05-18T10:51:05.406Z,49.71
2019-05-18T10:53:33.663Z,51.31
2019-05-18T10:56:03.306Z,51.86
2019-05-18T10:58:32.975Z,50.00
2019-05-18T11:01:02.657Z,49.45
2019-05-18T11:03:32.276Z,50.34
2019-05-18T11:06:01.871Z,50.71
2019-05-18T11:08:31.496Z,49.32
2019-05-18T11:11:01.080Z,48.50
2019-05-18T11:13:30.726Z,48.50
2019-05-18T11:16:00.316Z,49.68
2019-05-18T11:18:30.383Z,49.89
2019-05-18T11:21:00.138Z,50.53
2019-05-18T11:23:42.831Z,51.60
2019-05-18T11:26:01.058Z,52.02
2019-05-18T11:28:30.694Z,51.76
2019-05-18T11:31:00.382Z,51.91
2019-05-18T11:33:29.988Z,51.95
2019-05-18T11:35:59.584Z,52.41
2019-05-18T11:38:29.270Z,52.50
2019-05-18T11:40:58.910Z,53.22
2019-05-18T11:43:28.518Z,53.87
2019-05-18T11:45:58.186Z,53.19
2019-05-18T11:48:27.805Z,52.11
2019-05-18T11:50:57.395Z,54.13
2019-05-18T11:53:27.003Z,53.06
2019-05-18T11:55:56.618Z,51.12
2019-05-18T11:58:26.236Z,51.59
2019-05-18T12:00:55.859Z,51.85
2019-05-18T12:03:25.539Z,52.70
2019-05-18T12:05:56.104Z,54.56
2019-05-18T12:08:25.716Z,52.58
2019-05-18T12:10:56.313Z,51.17
2019-05-18T12:13:26.196Z,51.67
2019-05-18T12:15:55.784Z,51.84
2019-05-18T12:18:25.426Z,52.52
2019-05-18T12:20:55.092Z,53.60
2019-05-18T12:23:24.702Z,55.02
2019-05-18T12:25:54.288Z,54.39
2019-05-18T12:28:23.971Z,54.78
2019-05-18T12:30:53.611Z,53.88
2019-05-18T12:33:23.311Z,54.26
2019-05-18T12:35:53.011Z,54.76
2019-05-18T12:38:22.605Z,54.08
2019-05-18T12:40:52.286Z,52.00
2019-05-18T12:43:21.919Z,53.20
2019-05-18T12:45:51.656Z,53.27
2019-05-18T12:48:21.365Z,52.38
2019-05-18T12:54:51.693Z,53.82
2019-05-18T12:57:21.299Z,52.92
2019-05-18T12:59:50.905Z,53.91
2019-05-18T13:02:20.514Z,54.33
2019-05-18T13:04:50.458Z,54.52
2019-05-18T13:07:20.075Z,53.62
2019-05-18T13:09:50.010Z,53.13
2019-05-18T13:12:19.613Z,51.58
2019-05-18T13:14:49.253Z,51.61
2019-05-18T13:17:21.282Z,53.12
2019-05-18T13:19:50.259Z,54.28
2019-05-18T13:22:19.942Z,54.78
2019-05-18T13:24:52.175Z,52.97
2019-05-18T13:27:20.979Z,53.61
2019-05-18T13:29:50.584Z,52.72
2019-05-18T13:32:20.185Z,51.88
2019-05-18T13:34:49.831Z,51.63
2019-05-18T13:37:19.500Z,52.85
2019-05-18T13:39:49.092Z,53.08
2019-05-18T13:42:18.714Z,53.90
2019-05-18T13:44:48.333Z,54.89
2019-05-18T13:47:17.955Z,53.71
2019-05-18T13:49:47.580Z,55.15
2019-05-18T13:52:17.180Z,53.47
2019-05-18T13:55:01.835Z,48.51
2019-05-18T13:57:19.268Z,43.95
2019-05-18T13:59:48.885Z,41.51
2019-05-18T14:02:18.500Z,43.75
2019-05-18T14:04:48.090Z,44.47
2019-05-18T14:07:17.695Z,46.41
2019-05-18T14:09:47.307Z,43.52
2019-05-18T14:12:16.899Z,40.11
2019-05-18T14:14:46.535Z,37.80
2019-05-18T14:17:16.122Z,36.05
2019-05-18T14:19:45.742Z,36.90
2019-05-18T14:22:15.365Z,39.36
2019-05-18T14:24:44.963Z,38.63
2019-05-18T14:27:14.563Z,41.39
2019-05-18T14:29:44.173Z,45.25
2019-05-18T14:32:13.900Z,48.28
2019-05-18T14:34:43.507Z,49.98
2019-05-18T14:37:13.095Z,50.56
2019-05-18T14:39:42.739Z,49.07
2019-05-18T14:42:12.348Z,48.96
2019-05-18T14:44:41.988Z,47.83
2019-05-18T14:47:11.565Z,47.41
2019-05-18T14:49:41.278Z,47.83
2019-05-18T14:52:12.174Z,47.96
2019-05-18T14:54:42.171Z,48.48
2019-05-18T14:57:12.063Z,48.55
2019-05-18T14:59:41.656Z,48.30
2019-05-18T15:02:11.246Z,48.75
2019-05-18T15:04:40.836Z,49.32
2019-05-18T15:07:10.442Z,49.57
2019-05-18T15:09:40.081Z,49.11
2019-05-18T15:12:09.665Z,49.00
2019-05-18T15:14:39.276Z,49.25
2019-05-18T15:17:08.902Z,49.42
2019-05-18T15:19:38.583Z,49.19
2019-05-18T15:22:08.251Z,48.76
2019-05-18T15:24:37.949Z,48.42
2019-05-18T15:27:07.604Z,48.27
2019-05-18T15:29:37.229Z,48.29
2019-05-18T15:32:06.874Z,47.74
2019-05-18T15:34:36.549Z,46.86
2019-05-18T15:37:06.161Z,43.66
2019-05-18T15:39:35.851Z,39.33
2019-05-18T15:42:05.663Z,36.26
2019-05-18T15:44:35.325Z,34.49
2019-05-18T15:47:05.170Z,33.55
2019-05-18T15:49:35.078Z,32.74
2019-05-18T15:52:04.838Z,31.91
2019-05-18T15:54:36.215Z,30.87
2019-05-18T15:57:06.009Z,29.91
2019-05-18T15:59:35.631Z,29.30
2019-05-18T16:02:06.584Z,28.78
2019-05-18T16:04:36.478Z,28.52
2019-05-18T16:07:06.450Z,28.31
2019-05-18T16:09:36.056Z,28.08
2019-05-18T16:12:07.093Z,27.88
2019-05-18T16:14:36.663Z,27.86
2019-05-18T16:17:07.467Z,27.87
2019-05-18T16:19:37.164Z,27.79
2019-05-18T16:22:06.841Z,27.85
2019-05-18T16:24:36.425Z,27.90
2019-05-18T16:27:08.844Z,27.73
2019-05-18T16:29:38.438Z,27.57
2019-05-18T16:32:08.255Z,27.41
2019-05-18T16:34:37.827Z,27.39
2019-05-18T16:37:13.196Z,27.34
2019-05-18T16:39:42.753Z,27.22
2019-05-18T16:42:12.365Z,27.11
2019-05-18T16:44:41.958Z,27.06
2019-05-18T16:47:11.578Z,27.00
2019-05-18T16:49:41.198Z,26.91
2019-05-18T16:52:10.805Z,26.80
2019-05-18T16:54:40.458Z,26.67
2019-05-18T16:57:10.003Z,26.48
2019-05-18T16:59:39.600Z,26.29
2019-05-18T17:02:09.496Z,26.14
2019-05-18T17:04:39.088Z,26.01
2019-05-18T17:07:08.691Z,25.95
2019-05-18T17:09:38.361Z,25.88
2019-05-18T17:12:08.040Z,25.79
2019-05-18T17:14:37.666Z,25.66
2019-05-18T17:17:07.275Z,25.56
2019-05-18T17:19:36.867Z,25.49
2019-05-18T17:22:06.496Z,25.40
2019-05-18T17:24:36.081Z,25.32
2019-05-18T17:27:05.702Z,25.25
2019-05-18T17:29:35.331Z,25.14
2019-05-18T17:32:05.227Z,25.08
2019-05-18T17:34:34.860Z,24.96
2019-05-18T17:37:04.461Z,24.87
2019-05-18T17:39:34.102Z,24.75
2019-05-18T17:42:05.107Z,24.67
2019-05-18T17:44:35.065Z,24.58
2019-05-18T17:47:04.760Z,24.48
2019-05-18T17:49:34.350Z,24.44
2019-05-18T17:52:03.955Z,24.37
2019-05-18T17:54:33.648Z,24.23
2019-05-18T17:57:08.341Z,24.16
2019-05-18T17:59:34.606Z,24.02
2019-05-18T18:02:04.227Z,23.97
2019-05-18T18:04:33.839Z,23.91
2019-05-18T18:07:03.494Z,23.80
2019-05-18T18:09:33.086Z,23.72
2019-05-18T18:12:02.708Z,23.61
2019-05-18T18:14:32.373Z,23.53
2019-05-18T18:17:02.038Z,23.41
2019-05-18T18:19:31.698Z,23.32
2019-05-18T18:22:01.315Z,23.22
2019-05-18T18:24:30.958Z,23.15
2019-05-18T18:27:00.572Z,23.06
2019-05-18T18:29:30.155Z,23.01
2019-05-18T18:31:59.777Z,22.89
2019-05-18T18:34:29.384Z,22.75
2019-05-18T18:37:01.320Z,22.62
2019-05-18T18:39:30.677Z,22.54
2019-05-18T18:42:00.330Z,22.42
2019-05-18T18:44:29.973Z,22.36
2019-05-18T18:47:21.206Z,22.29
2019-05-18T18:49:50.757Z,22.22
2019-05-18T18:52:20.419Z,22.14
2019-05-18T18:54:50.020Z,22.04
2019-05-18T18:57:19.638Z,21.96
2019-05-18T18:59:56.869Z,21.86
2019-05-18T19:02:26.360Z,21.81
2019-05-18T19:09:04.785Z,21.65
2019-05-18T19:11:34.427Z,21.46
2019-05-18T19:14:05.449Z,21.37
2019-05-18T19:16:35.073Z,21.28
2019-05-18T19:19:04.657Z,21.21
2019-05-18T19:21:34.256Z,21.11
2019-05-18T19:24:03.884Z,21.07
2019-05-18T19:26:33.486Z,21.03
2019-05-18T19:29:03.158Z,20.97
2019-05-18T19:31:32.775Z,20.89
2019-05-18T19:34:02.410Z,20.82
2019-05-18T19:36:32.015Z,20.72
2019-05-18T19:39:01.658Z,20.73
2019-05-18T19:41:31.238Z,20.61
2019-05-18T19:44:00.847Z,20.54
2019-05-18T19:46:30.453Z,20.46
2019-05-18T19:49:00.084Z,20.42
2019-05-18T19:51:29.965Z,20.39
2019-05-18T19:53:59.679Z,20.36
2019-05-18T19:56:29.306Z,20.36
2019-05-18T19:58:58.920Z,20.30
2019-05-18T20:01:28.529Z,20.28
2019-05-18T20:03:58.135Z,20.25
2019-05-18T20:06:27.747Z,20.21
2019-05-18T20:08:57.386Z,20.17
2019-05-18T20:11:26.989Z,20.14
2019-05-18T20:13:56.611Z,20.07
2019-05-18T20:16:26.732Z,20.01
2019-05-18T20:18:56.795Z,19.90
2019-05-18T20:21:27.078Z,19.80
2019-05-18T20:23:56.728Z,19.73
2019-05-18T20:26:26.329Z,19.63
2019-05-18T20:28:56.726Z,19.58
2019-05-18T20:31:27.969Z,19.50
2019-05-18T20:33:57.635Z,19.39
2019-05-18T20:36:27.219Z,19.31
2019-05-18T20:38:56.828Z,19.23
2019-05-18T20:41:26.454Z,19.17
2019-05-18T20:43:56.060Z,19.12
2019-05-18T20:46:25.680Z,19.06
2019-05-18T20:48:55.463Z,18.94
2019-05-18T20:51:25.126Z,18.87
2019-05-18T20:53:54.711Z,18.84
2019-05-18T20:56:24.363Z,18.78
2019-05-18T20:58:53.969Z,18.73
2019-05-18T21:01:23.711Z,18.69
2019-05-18T21:03:53.321Z,18.62
2019-05-18T21:06:22.960Z,18.57
2019-05-18T21:08:52.573Z,18.54
2019-05-18T21:11:22.189Z,18.53
2019-05-18T21:13:51.785Z,18.47
2019-05-18T21:16:21.394Z,18.47
2019-05-18T21:18:50.999Z,18.49
2019-05-18T21:21:25.410Z,18.49
2019-05-18T21:23:51.950Z,18.51
2019-05-18T21:26:21.618Z,18.50
2019-05-18T21:28:59.157Z,18.44
2019-05-18T21:31:22.604Z,18.41
2019-05-18T21:33:52.224Z,18.38
2019-05-18T21:36:21.847Z,18.35
2019-05-18T21:38:51.465Z,18.33
2019-05-18T21:41:21.058Z,18.27
2019-05-18T21:43:50.688Z,18.24
2019-05-18T21:46:20.281Z,18.20
2019-05-18T21:48:49.904Z,18.16
2019-05-18T21:51:19.541Z,18.15
2019-05-18T21:53:49.157Z,18.10
2019-05-18T21:56:18.774Z,18.11
2019-05-18T21:58:48.383Z,18.08
2019-05-18T22:01:18.180Z,18.01
2019-05-18T22:03:48.363Z,17.97
2019-05-18T22:06:18.337Z,17.91
2019-05-18T22:08:48.004Z,17.88
2019-05-18T22:11:17.631Z,17.87
2019-05-18T22:13:47.251Z,17.85
2019-05-18T22:16:16.853Z,17.81
2019-05-18T22:18:46.576Z,17.78
2019-05-18T22:21:16.196Z,17.74
2019-05-18T22:23:46.163Z,17.69
2019-05-18T22:26:15.768Z,17.64
2019-05-18T22:28:45.435Z,17.61
2019-05-18T22:31:15.005Z,17.60
2019-05-18T22:33:44.604Z,17.58
2019-05-18T22:36:14.220Z,17.61
2019-05-18T22:38:43.813Z,17.63
2019-05-18T22:41:13.669Z,17.57
2019-05-18T22:43:43.295Z,17.53
2019-05-18T22:46:12.952Z,17.49
2019-05-18T22:48:42.534Z,17.44
2019-05-18T22:51:12.232Z,17.44
2019-05-18T22:53:41.822Z,17.40
2019-05-18T22:56:11.429Z,17.36
2019-05-18T22:58:41.068Z,17.30
2019-05-18T23:01:10.685Z,17.28
2019-05-18T23:03:40.300Z,17.27
2019-05-18T23:06:09.921Z,17.24
2019-05-18T23:08:39.530Z,17.22
2019-05-18T23:11:09.144Z,17.18
2019-05-18T23:13:38.758Z,17.18
2019-05-18T23:16:08.365Z,17.19
2019-05-18T23:18:38.001Z,17.22
2019-05-18T23:21:07.620Z,17.22
2019-05-18T23:23:37.225Z,17.22
2019-05-18T23:26:06.997Z,17.22
2019-05-18T23:28:36.595Z,17.22
2019-05-18T23:31:06.208Z,17.23
2019-05-18T23:33:35.809Z,17.23
2019-05-18T23:36:05.442Z,17.22
2019-05-18T23:38:35.046Z,17.21
2019-05-18T23:41:04.675Z,17.21
2019-05-18T23:43:34.299Z,17.21
2019-05-18T23:46:03.909Z,17.19
2019-05-18T23:48:33.565Z,17.19
2019-05-18T23:51:03.141Z,17.17
2019-05-18T23:53:32.778Z,17.16
2019-05-18T23:56:02.570Z,17.15
2019-05-18T23:58:32.160Z,17.12
